sensor_id;sensor_type;location;lat;lon;timestamp;P1;durP1;ratioP1;P2;durP2;ratioP2
54923;SDS011;40825;52.270;20.984;2023-05-07T00:00:19;7.60;;;2.70;;
54923;SDS011;40825;52.270;20.984;2023-05-07T00:03:05;6.90;;;2.70;;
54923;SDS011;40825;52.270;20.984;2023-05-07T00:05:31;7.50;;;2.90;;
54923;SDS011;40825;52.270;20.984;2023-05-07T00:07:57;6.80;;;2.40;;
54923;SDS011;40825;52.270;20.984;2023-05-07T00:10:23;6.20;;;2.40;;
54923;SDS011;40825;52.270;20.984;2023-05-07T00:12:48;7.40;;;2.70;;
54923;SDS011;40825;52.270;20.984;2023-05-07T00:15:14;5.80;;;2.60;;
54923;SDS011;40825;52.270;20.984;2023-05-07T00:17:39;5.90;;;2.40;;
54923;SDS011;40825;52.270;20.984;2023-05-07T00:20:05;7.20;;;2.80;;
54923;SDS011;40825;52.270;20.984;2023-05-07T00:22:32;5.20;;;2.40;;
54923;SDS011;40825;52.270;20.984;2023-05-07T00:24:57;7.00;;;3.00;;
54923;SDS011;40825;52.270;20.984;2023-05-07T00:27:24;5.90;;;2.40;;
54923;SDS011;40825;52.270;20.984;2023-05-07T00:29:50;7.40;;;3.30;;
54923;SDS011;40825;52.270;20.984;2023-05-07T00:32:16;7.10;;;2.80;;
54923;SDS011;40825;52.270;20.984;2023-05-07T00:34:42;8.40;;;3.20;;
54923;SDS011;40825;52.270;20.984;2023-05-07T00:37:08;7.10;;;3.00;;
54923;SDS011;40825;52.270;20.984;2023-05-07T00:39:34;7.10;;;2.70;;
54923;SDS011;40825;52.270;20.984;2023-05-07T00:42:00;5.60;;;2.70;;
54923;SDS011;40825;52.270;20.984;2023-05-07T00:44:25;5.70;;;2.50;;
54923;SDS011;40825;52.270;20.984;2023-05-07T00:46:51;6.50;;;3.30;;
54923;SDS011;40825;52.270;20.984;2023-05-07T00:49:17;8.80;;;3.00;;
54923;SDS011;40825;52.270;20.984;2023-05-07T00:51:43;6.10;;;2.50;;
54923;SDS011;40825;52.270;20.984;2023-05-07T00:54:09;4.80;;;2.10;;
54923;SDS011;40825;52.270;20.984;2023-05-07T00:56:36;6.00;;;2.30;;
54923;SDS011;40825;52.270;20.984;2023-05-07T00:59:02;5.70;;;2.10;;
54923;SDS011;40825;52.270;20.984;2023-05-07T01:02:32;5.30;;;2.10;;
54923;SDS011;40825;52.270;20.984;2023-05-07T01:04:58;4.20;;;1.90;;
54923;SDS011;40825;52.270;20.984;2023-05-07T01:07:25;6.10;;;2.60;;
54923;SDS011;40825;52.270;20.984;2023-05-07T01:09:52;7.90;;;2.50;;
54923;SDS011;40825;52.270;20.984;2023-05-07T01:12:18;5.80;;;2.10;;
54923;SDS011;40825;52.270;20.984;2023-05-07T01:14:43;3.90;;;1.80;;
54923;SDS011;40825;52.270;20.984;2023-05-07T01:17:09;5.90;;;2.60;;
54923;SDS011;40825;52.270;20.984;2023-05-07T01:19:34;6.50;;;2.40;;
54923;SDS011;40825;52.270;20.984;2023-05-07T01:22:02;5.20;;;2.10;;
54923;SDS011;40825;52.270;20.984;2023-05-07T01:24:30;4.80;;;2.00;;
54923;SDS011;40825;52.270;20.984;2023-05-07T01:26:56;6.20;;;2.40;;
54923;SDS011;40825;52.270;20.984;2023-05-07T01:29:22;4.70;;;2.00;;
54923;SDS011;40825;52.270;20.984;2023-05-07T01:31:47;5.50;;;2.50;;
54923;SDS011;40825;52.270;20.984;2023-05-07T01:34:15;5.70;;;2.20;;
54923;SDS011;40825;52.270;20.984;2023-05-07T01:36:42;5.50;;;2.10;;
54923;SDS011;40825;52.270;20.984;2023-05-07T01:39:09;6.80;;;2.60;;
54923;SDS011;40825;52.270;20.984;2023-05-07T01:41:35;6.00;;;2.10;;
54923;SDS011;40825;52.270;20.984;2023-05-07T01:44:01;5.20;;;2.50;;
54923;SDS011;40825;52.270;20.984;2023-05-07T01:46:29;4.10;;;1.80;;
54923;SDS011;40825;52.270;20.984;2023-05-07T01:48:55;5.90;;;2.10;;
54923;SDS011;40825;52.270;20.984;2023-05-07T01:51:21;5.90;;;2.10;;
54923;SDS011;40825;52.270;20.984;2023-05-07T01:53:47;7.40;;;2.30;;
54923;SDS011;40825;52.270;20.984;2023-05-07T01:56:16;6.00;;;2.70;;
54923;SDS011;40825;52.270;20.984;2023-05-07T01:58:44;6.60;;;2.60;;
54923;SDS011;40825;52.270;20.984;2023-05-07T02:01:12;6.20;;;2.00;;
54923;SDS011;40825;52.270;20.984;2023-05-07T02:03:38;4.30;;;1.90;;
54923;SDS011;40825;52.270;20.984;2023-05-07T02:06:03;4.90;;;2.10;;
54923;SDS011;40825;52.270;20.984;2023-05-07T02:08:29;5.80;;;2.20;;
54923;SDS011;40825;52.270;20.984;2023-05-07T02:10:55;5.40;;;1.90;;
54923;SDS011;40825;52.270;20.984;2023-05-07T02:13:20;6.50;;;1.80;;
54923;SDS011;40825;52.270;20.984;2023-05-07T02:15:47;4.30;;;1.70;;
54923;SDS011;40825;52.270;20.984;2023-05-07T02:18:15;5.20;;;1.80;;
54923;SDS011;40825;52.270;20.984;2023-05-07T02:20:42;4.10;;;1.60;;
54923;SDS011;40825;52.270;20.984;2023-05-07T02:23:07;6.40;;;2.30;;
54923;SDS011;40825;52.270;20.984;2023-05-07T02:25:33;4.00;;;1.60;;
54923;SDS011;40825;52.270;20.984;2023-05-07T02:27:58;6.60;;;2.20;;
54923;SDS011;40825;52.270;20.984;2023-05-07T02:30:24;4.80;;;2.10;;
54923;SDS011;40825;52.270;20.984;2023-05-07T02:32:50;4.00;;;2.00;;
54923;SDS011;40825;52.270;20.984;2023-05-07T02:35:16;7.70;;;1.60;;
54923;SDS011;40825;52.270;20.984;2023-05-07T02:37:42;5.70;;;2.20;;
54923;SDS011;40825;52.270;20.984;2023-05-07T02:40:08;4.80;;;1.80;;
54923;SDS011;40825;52.270;20.984;2023-05-07T02:42:34;5.00;;;1.90;;
54923;SDS011;40825;52.270;20.984;2023-05-07T02:45:00;7.90;;;2.50;;
54923;SDS011;40825;52.270;20.984;2023-05-07T02:47:25;5.20;;;1.60;;
54923;SDS011;40825;52.270;20.984;2023-05-07T02:49:54;6.50;;;2.10;;
54923;SDS011;40825;52.270;20.984;2023-05-07T02:52:20;5.20;;;2.80;;
54923;SDS011;40825;52.270;20.984;2023-05-07T02:54:46;5.30;;;2.00;;
54923;SDS011;40825;52.270;20.984;2023-05-07T02:57:12;5.40;;;1.80;;
54923;SDS011;40825;52.270;20.984;2023-05-07T02:59:37;5.50;;;2.10;;
54923;SDS011;40825;52.270;20.984;2023-05-07T03:02:03;5.00;;;1.60;;
54923;SDS011;40825;52.270;20.984;2023-05-07T03:04:28;5.70;;;2.50;;
54923;SDS011;40825;52.270;20.984;2023-05-07T03:06:54;6.00;;;1.90;;
54923;SDS011;40825;52.270;20.984;2023-05-07T03:09:20;5.10;;;1.70;;
54923;SDS011;40825;52.270;20.984;2023-05-07T03:11:45;5.20;;;2.30;;
54923;SDS011;40825;52.270;20.984;2023-05-07T03:14:11;5.90;;;1.80;;
54923;SDS011;40825;52.270;20.984;2023-05-07T03:16:37;5.60;;;1.80;;
54923;SDS011;40825;52.270;20.984;2023-05-07T03:19:03;5.00;;;2.00;;
54923;SDS011;40825;52.270;20.984;2023-05-07T03:21:29;5.80;;;1.70;;
54923;SDS011;40825;52.270;20.984;2023-05-07T03:23:55;3.70;;;1.50;;
54923;SDS011;40825;52.270;20.984;2023-05-07T03:26:21;5.20;;;2.20;;
54923;SDS011;40825;52.270;20.984;2023-05-07T03:28:46;4.70;;;1.60;;
54923;SDS011;40825;52.270;20.984;2023-05-07T03:31:12;5.40;;;2.40;;
54923;SDS011;40825;52.270;20.984;2023-05-07T03:33:39;4.90;;;2.30;;
54923;SDS011;40825;52.270;20.984;2023-05-07T03:36:16;5.10;;;1.80;;
54923;SDS011;40825;52.270;20.984;2023-05-07T03:38:41;6.50;;;1.70;;
54923;SDS011;40825;52.270;20.984;2023-05-07T03:41:07;4.60;;;2.10;;
54923;SDS011;40825;52.270;20.984;2023-05-07T03:43:32;5.50;;;2.40;;
54923;SDS011;40825;52.270;20.984;2023-05-07T03:45:57;4.90;;;2.20;;
54923;SDS011;40825;52.270;20.984;2023-05-07T03:48:23;4.40;;;2.10;;
54923;SDS011;40825;52.270;20.984;2023-05-07T03:50:48;4.20;;;2.00;;
54923;SDS011;40825;52.270;20.984;2023-05-07T03:53:14;6.20;;;1.80;;
54923;SDS011;40825;52.270;20.984;2023-05-07T03:55:40;5.30;;;2.10;;
54923;SDS011;40825;52.270;20.984;2023-05-07T03:58:05;3.80;;;1.40;;
54923;SDS011;40825;52.270;20.984;2023-05-07T04:00:31;4.70;;;1.80;;
54923;SDS011;40825;52.270;20.984;2023-05-07T04:03:02;5.60;;;2.10;;
54923;SDS011;40825;52.270;20.984;2023-05-07T04:05:30;4.30;;;1.60;;
54923;SDS011;40825;52.270;20.984;2023-05-07T04:07:57;5.30;;;2.10;;
54923;SDS011;40825;52.270;20.984;2023-05-07T04:10:23;3.80;;;1.60;;
54923;SDS011;40825;52.270;20.984;2023-05-07T04:12:49;5.10;;;1.90;;
54923;SDS011;40825;52.270;20.984;2023-05-07T04:15:15;6.90;;;2.80;;
54923;SDS011;40825;52.270;20.984;2023-05-07T04:17:40;3.70;;;1.60;;
54923;SDS011;40825;52.270;20.984;2023-05-07T04:20:08;4.50;;;1.60;;
54923;SDS011;40825;52.270;20.984;2023-05-07T04:22:35;5.90;;;2.10;;
54923;SDS011;40825;52.270;20.984;2023-05-07T04:25:01;4.70;;;1.70;;
54923;SDS011;40825;52.270;20.984;2023-05-07T04:27:27;4.80;;;1.70;;
54923;SDS011;40825;52.270;20.984;2023-05-07T04:29:53;4.70;;;1.90;;
54923;SDS011;40825;52.270;20.984;2023-05-07T04:32:21;6.40;;;1.90;;
54923;SDS011;40825;52.270;20.984;2023-05-07T04:34:50;6.10;;;2.30;;
54923;SDS011;40825;52.270;20.984;2023-05-07T04:37:15;5.50;;;1.70;;
54923;SDS011;40825;52.270;20.984;2023-05-07T04:39:41;4.90;;;2.20;;
54923;SDS011;40825;52.270;20.984;2023-05-07T04:42:06;5.30;;;1.80;;
54923;SDS011;40825;52.270;20.984;2023-05-07T04:44:34;3.40;;;1.30;;
54923;SDS011;40825;52.270;20.984;2023-05-07T04:47:02;4.30;;;1.80;;
54923;SDS011;40825;52.270;20.984;2023-05-07T04:49:27;5.80;;;2.10;;
54923;SDS011;40825;52.270;20.984;2023-05-07T04:51:53;6.00;;;1.90;;
54923;SDS011;40825;52.270;20.984;2023-05-07T04:54:18;5.10;;;1.80;;
54923;SDS011;40825;52.270;20.984;2023-05-07T04:56:43;5.50;;;1.60;;
54923;SDS011;40825;52.270;20.984;2023-05-07T04:59:09;5.00;;;1.70;;
54923;SDS011;40825;52.270;20.984;2023-05-07T05:01:35;5.10;;;1.70;;
54923;SDS011;40825;52.270;20.984;2023-05-07T05:04:00;4.50;;;1.80;;
54923;SDS011;40825;52.270;20.984;2023-05-07T05:06:26;3.70;;;1.70;;
54923;SDS011;40825;52.270;20.984;2023-05-07T05:08:54;4.50;;;1.60;;
54923;SDS011;40825;52.270;20.984;2023-05-07T05:11:20;3.90;;;1.60;;
54923;SDS011;40825;52.270;20.984;2023-05-07T05:13:45;4.80;;;1.70;;
54923;SDS011;40825;52.270;20.984;2023-05-07T05:16:14;4.10;;;1.40;;
54923;SDS011;40825;52.270;20.984;2023-05-07T05:18:39;4.40;;;1.50;;
54923;SDS011;40825;52.270;20.984;2023-05-07T05:21:05;3.30;;;1.50;;
54923;SDS011;40825;52.270;20.984;2023-05-07T05:23:31;5.30;;;1.80;;
54923;SDS011;40825;52.270;20.984;2023-05-07T05:25:56;4.10;;;1.60;;
54923;SDS011;40825;52.270;20.984;2023-05-07T05:28:22;3.30;;;1.60;;
54923;SDS011;40825;52.270;20.984;2023-05-07T05:30:48;4.00;;;1.60;;
54923;SDS011;40825;52.270;20.984;2023-05-07T05:33:14;3.40;;;1.50;;
54923;SDS011;40825;52.270;20.984;2023-05-07T05:35:39;3.90;;;1.30;;
54923;SDS011;40825;52.270;20.984;2023-05-07T05:38:05;3.90;;;1.50;;
54923;SDS011;40825;52.270;20.984;2023-05-07T05:40:30;3.30;;;1.30;;
54923;SDS011;40825;52.270;20.984;2023-05-07T05:42:56;4.00;;;1.70;;
54923;SDS011;40825;52.270;20.984;2023-05-07T05:45:21;6.30;;;1.80;;
54923;SDS011;40825;52.270;20.984;2023-05-07T05:47:47;4.20;;;1.70;;
54923;SDS011;40825;52.270;20.984;2023-05-07T05:50:12;3.10;;;1.10;;
54923;SDS011;40825;52.270;20.984;2023-05-07T05:52:38;5.00;;;1.40;;
54923;SDS011;40825;52.270;20.984;2023-05-07T05:55:03;6.00;;;1.60;;
54923;SDS011;40825;52.270;20.984;2023-05-07T05:57:29;3.60;;;1.60;;
54923;SDS011;40825;52.270;20.984;2023-05-07T05:59:55;3.50;;;1.20;;
54923;SDS011;40825;52.270;20.984;2023-05-07T06:02:21;3.00;;;1.40;;
54923;SDS011;40825;52.270;20.984;2023-05-07T06:04:46;3.00;;;1.10;;
54923;SDS011;40825;52.270;20.984;2023-05-07T06:07:12;2.60;;;0.80;;
54923;SDS011;40825;52.270;20.984;2023-05-07T06:09:37;4.20;;;1.50;;
54923;SDS011;40825;52.270;20.984;2023-05-07T06:12:03;3.30;;;1.20;;
54923;SDS011;40825;52.270;20.984;2023-05-07T06:14:28;3.50;;;1.30;;
54923;SDS011;40825;52.270;20.984;2023-05-07T06:16:54;4.00;;;1.50;;
54923;SDS011;40825;52.270;20.984;2023-05-07T06:19:19;4.80;;;1.40;;
54923;SDS011;40825;52.270;20.984;2023-05-07T06:24:13;4.20;;;1.10;;
54923;SDS011;40825;52.270;20.984;2023-05-07T06:26:39;2.60;;;1.10;;
54923;SDS011;40825;52.270;20.984;2023-05-07T06:29:05;2.50;;;1.10;;
54923;SDS011;40825;52.270;20.984;2023-05-07T06:31:31;3.10;;;1.30;;
54923;SDS011;40825;52.270;20.984;2023-05-07T06:33:57;3.40;;;1.50;;
54923;SDS011;40825;52.270;20.984;2023-05-07T06:36:22;3.50;;;1.50;;
54923;SDS011;40825;52.270;20.984;2023-05-07T06:38:48;3.00;;;1.10;;
54923;SDS011;40825;52.270;20.984;2023-05-07T06:41:13;3.00;;;1.40;;
54923;SDS011;40825;52.270;20.984;2023-05-07T06:43:39;3.40;;;1.60;;
54923;SDS011;40825;52.270;20.984;2023-05-07T06:46:05;3.90;;;1.20;;
54923;SDS011;40825;52.270;20.984;2023-05-07T06:48:30;3.70;;;1.10;;
54923;SDS011;40825;52.270;20.984;2023-05-07T06:50:56;2.80;;;1.00;;
54923;SDS011;40825;52.270;20.984;2023-05-07T06:53:23;4.00;;;1.50;;
54923;SDS011;40825;52.270;20.984;2023-05-07T06:55:49;2.40;;;1.10;;
54923;SDS011;40825;52.270;20.984;2023-05-07T06:58:14;3.60;;;1.50;;
54923;SDS011;40825;52.270;20.984;2023-05-07T07:00:40;3.40;;;1.40;;
54923;SDS011;40825;52.270;20.984;2023-05-07T07:03:06;3.70;;;1.20;;
54923;SDS011;40825;52.270;20.984;2023-05-07T07:05:31;3.50;;;1.70;;
54923;SDS011;40825;52.270;20.984;2023-05-07T07:07:57;2.50;;;1.00;;
54923;SDS011;40825;52.270;20.984;2023-05-07T07:10:22;4.20;;;1.30;;
54923;SDS011;40825;52.270;20.984;2023-05-07T07:12:48;3.50;;;1.30;;
54923;SDS011;40825;52.270;20.984;2023-05-07T07:15:15;4.50;;;1.10;;
54923;SDS011;40825;52.270;20.984;2023-05-07T07:17:41;2.30;;;1.10;;
54923;SDS011;40825;52.270;20.984;2023-05-07T07:20:06;2.50;;;1.20;;
54923;SDS011;40825;52.270;20.984;2023-05-07T07:22:32;5.70;;;1.20;;
54923;SDS011;40825;52.270;20.984;2023-05-07T07:24:58;3.10;;;1.00;;
54923;SDS011;40825;52.270;20.984;2023-05-07T07:27:23;4.40;;;1.50;;
54923;SDS011;40825;52.270;20.984;2023-05-07T07:29:49;3.90;;;1.40;;
54923;SDS011;40825;52.270;20.984;2023-05-07T07:32:14;3.30;;;1.40;;
54923;SDS011;40825;52.270;20.984;2023-05-07T07:34:40;4.40;;;1.40;;
54923;SDS011;40825;52.270;20.984;2023-05-07T07:37:06;4.20;;;1.70;;
54923;SDS011;40825;52.270;20.984;2023-05-07T07:39:32;5.00;;;1.40;;
54923;SDS011;40825;52.270;20.984;2023-05-07T07:41:58;4.20;;;1.30;;
54923;SDS011;40825;52.270;20.984;2023-05-07T07:44:24;3.70;;;1.20;;
54923;SDS011;40825;52.270;20.984;2023-05-07T07:46:50;4.00;;;1.80;;
54923;SDS011;40825;52.270;20.984;2023-05-07T07:49:16;2.70;;;0.80;;
54923;SDS011;40825;52.270;20.984;2023-05-07T07:51:41;2.30;;;1.10;;
54923;SDS011;40825;52.270;20.984;2023-05-07T07:54:07;3.70;;;1.10;;
54923;SDS011;40825;52.270;20.984;2023-05-07T07:56:32;3.20;;;1.30;;
54923;SDS011;40825;52.270;20.984;2023-05-07T07:58:59;2.60;;;1.20;;
54923;SDS011;40825;52.270;20.984;2023-05-07T08:01:25;2.80;;;1.20;;
54923;SDS011;40825;52.270;20.984;2023-05-07T08:03:51;4.50;;;1.10;;
54923;SDS011;40825;52.270;20.984;2023-05-07T08:06:16;2.20;;;1.20;;
54923;SDS011;40825;52.270;20.984;2023-05-07T08:08:42;2.60;;;1.30;;
54923;SDS011;40825;52.270;20.984;2023-05-07T08:11:07;3.80;;;1.10;;
54923;SDS011;40825;52.270;20.984;2023-05-07T08:13:33;2.90;;;1.20;;
54923;SDS011;40825;52.270;20.984;2023-05-07T08:15:58;3.20;;;1.10;;
54923;SDS011;40825;52.270;20.984;2023-05-07T08:18:24;3.20;;;1.00;;
54923;SDS011;40825;52.270;20.984;2023-05-07T08:20:51;4.90;;;1.20;;
54923;SDS011;40825;52.270;20.984;2023-05-07T08:23:16;2.90;;;1.00;;
54923;SDS011;40825;52.270;20.984;2023-05-07T08:25:42;3.90;;;1.20;;
54923;SDS011;40825;52.270;20.984;2023-05-07T08:28:10;4.40;;;1.70;;
54923;SDS011;40825;52.270;20.984;2023-05-07T08:30:36;4.80;;;1.40;;
54923;SDS011;40825;52.270;20.984;2023-05-07T08:33:01;4.00;;;1.60;;
54923;SDS011;40825;52.270;20.984;2023-05-07T08:35:27;3.30;;;1.20;;
54923;SDS011;40825;52.270;20.984;2023-05-07T08:37:53;2.90;;;0.90;;
54923;SDS011;40825;52.270;20.984;2023-05-07T08:40:19;4.20;;;1.40;;
54923;SDS011;40825;52.270;20.984;2023-05-07T08:42:50;3.00;;;1.10;;
54923;SDS011;40825;52.270;20.984;2023-05-07T08:45:17;4.10;;;1.00;;
54923;SDS011;40825;52.270;20.984;2023-05-07T08:47:47;3.50;;;1.40;;
54923;SDS011;40825;52.270;20.984;2023-05-07T08:50:16;2.50;;;1.10;;
54923;SDS011;40825;52.270;20.984;2023-05-07T08:52:42;3.30;;;1.30;;
54923;SDS011;40825;52.270;20.984;2023-05-07T08:55:08;2.70;;;1.40;;
54923;SDS011;40825;52.270;20.984;2023-05-07T08:57:34;3.10;;;1.20;;
54923;SDS011;40825;52.270;20.984;2023-05-07T09:00:00;4.70;;;1.10;;
54923;SDS011;40825;52.270;20.984;2023-05-07T09:02:28;3.10;;;1.30;;
54923;SDS011;40825;52.270;20.984;2023-05-07T09:04:53;3.30;;;1.30;;
54923;SDS011;40825;52.270;20.984;2023-05-07T09:07:19;3.10;;;0.90;;
54923;SDS011;40825;52.270;20.984;2023-05-07T09:09:45;3.00;;;1.20;;
54923;SDS011;40825;52.270;20.984;2023-05-07T09:12:11;2.90;;;1.10;;
54923;SDS011;40825;52.270;20.984;2023-05-07T09:14:37;3.30;;;1.40;;
54923;SDS011;40825;52.270;20.984;2023-05-07T09:17:03;3.60;;;1.10;;
54923;SDS011;40825;52.270;20.984;2023-05-07T09:19:29;2.50;;;1.00;;
54923;SDS011;40825;52.270;20.984;2023-05-07T09:21:58;3.70;;;1.00;;
54923;SDS011;40825;52.270;20.984;2023-05-07T09:24:28;3.50;;;1.60;;
54923;SDS011;40825;52.270;20.984;2023-05-07T09:26:59;3.90;;;1.10;;
54923;SDS011;40825;52.270;20.984;2023-05-07T09:29:26;4.70;;;1.30;;
54923;SDS011;40825;52.270;20.984;2023-05-07T09:31:54;3.80;;;1.30;;
54923;SDS011;40825;52.270;20.984;2023-05-07T09:34:20;3.70;;;1.30;;
54923;SDS011;40825;52.270;20.984;2023-05-07T09:36:46;3.80;;;0.90;;
54923;SDS011;40825;52.270;20.984;2023-05-07T09:39:12;3.70;;;1.00;;
54923;SDS011;40825;52.270;20.984;2023-05-07T09:41:45;5.70;;;1.40;;
54923;SDS011;40825;52.270;20.984;2023-05-07T09:44:12;2.80;;;1.00;;
54923;SDS011;40825;52.270;20.984;2023-05-07T09:46:39;4.10;;;1.90;;
54923;SDS011;40825;52.270;20.984;2023-05-07T09:49:08;3.00;;;1.30;;
54923;SDS011;40825;52.270;20.984;2023-05-07T09:51:43;3.50;;;1.10;;
54923;SDS011;40825;52.270;20.984;2023-05-07T09:54:14;3.10;;;1.10;;
54923;SDS011;40825;52.270;20.984;2023-05-07T09:56:40;3.20;;;1.20;;
54923;SDS011;40825;52.270;20.984;2023-05-07T09:59:10;3.30;;;1.30;;
54923;SDS011;40825;52.270;20.984;2023-05-07T10:01:39;3.20;;;0.90;;
54923;SDS011;40825;52.270;20.984;2023-05-07T10:04:07;2.20;;;0.90;;
54923;SDS011;40825;52.270;20.984;2023-05-07T10:06:36;2.90;;;0.90;;
54923;SDS011;40825;52.270;20.984;2023-05-07T10:09:05;2.20;;;0.90;;
54923;SDS011;40825;52.270;20.984;2023-05-07T10:11:34;2.00;;;0.80;;
54923;SDS011;40825;52.270;20.984;2023-05-07T10:14:01;5.30;;;1.00;;
54923;SDS011;40825;52.270;20.984;2023-05-07T10:16:30;2.00;;;0.90;;
54923;SDS011;40825;52.270;20.984;2023-05-07T10:19:03;2.10;;;0.80;;
54923;SDS011;40825;52.270;20.984;2023-05-07T10:21:30;2.20;;;0.70;;
54923;SDS011;40825;52.270;20.984;2023-05-07T10:26:35;2.40;;;0.70;;
54923;SDS011;40825;52.270;20.984;2023-05-07T10:29:04;4.00;;;0.80;;
54923;SDS011;40825;52.270;20.984;2023-05-07T10:34:16;2.90;;;0.80;;
54923;SDS011;40825;52.270;20.984;2023-05-07T10:36:44;3.20;;;1.00;;
54923;SDS011;40825;52.270;20.984;2023-05-07T10:39:10;3.10;;;0.80;;
54923;SDS011;40825;52.270;20.984;2023-05-07T10:41:35;2.00;;;0.80;;
54923;SDS011;40825;52.270;20.984;2023-05-07T10:44:02;5.60;;;1.40;;
54923;SDS011;40825;52.270;20.984;2023-05-07T10:46:28;2.10;;;0.90;;
54923;SDS011;40825;52.270;20.984;2023-05-07T10:51:29;3.90;;;1.50;;
54923;SDS011;40825;52.270;20.984;2023-05-07T10:56:37;3.90;;;1.10;;
54923;SDS011;40825;52.270;20.984;2023-05-07T11:04:25;2.20;;;0.70;;
54923;SDS011;40825;52.270;20.984;2023-05-07T11:09:53;3.40;;;1.30;;
54923;SDS011;40825;52.270;20.984;2023-05-07T11:15:06;3.10;;;0.90;;
54923;SDS011;40825;52.270;20.984;2023-05-07T11:17:33;2.10;;;0.70;;
54923;SDS011;40825;52.270;20.984;2023-05-07T11:20:01;2.90;;;1.10;;
54923;SDS011;40825;52.270;20.984;2023-05-07T11:24:55;2.60;;;0.90;;
54923;SDS011;40825;52.270;20.984;2023-05-07T11:27:23;1.70;;;0.70;;
54923;SDS011;40825;52.270;20.984;2023-05-07T11:29:49;3.70;;;0.80;;
54923;SDS011;40825;52.270;20.984;2023-05-07T11:32:15;3.90;;;0.80;;
54923;SDS011;40825;52.270;20.984;2023-05-07T11:34:50;3.10;;;1.10;;
54923;SDS011;40825;52.270;20.984;2023-05-07T11:37:17;2.30;;;0.90;;
54923;SDS011;40825;52.270;20.984;2023-05-07T11:39:43;2.40;;;0.80;;
54923;SDS011;40825;52.270;20.984;2023-05-07T11:45:02;2.90;;;1.10;;
54923;SDS011;40825;52.270;20.984;2023-05-07T11:47:31;4.00;;;1.40;;
54923;SDS011;40825;52.270;20.984;2023-05-07T11:49:57;2.60;;;0.60;;
54923;SDS011;40825;52.270;20.984;2023-05-07T11:52:28;3.10;;;0.80;;
54923;SDS011;40825;52.270;20.984;2023-05-07T11:54:55;3.60;;;1.10;;
54923;SDS011;40825;52.270;20.984;2023-05-07T11:57:23;2.80;;;0.80;;
54923;SDS011;40825;52.270;20.984;2023-05-07T11:59:59;3.00;;;1.00;;
54923;SDS011;40825;52.270;20.984;2023-05-07T12:02:27;2.10;;;0.80;;
54923;SDS011;40825;52.270;20.984;2023-05-07T12:04:53;2.20;;;0.80;;
54923;SDS011;40825;52.270;20.984;2023-05-07T12:07:20;2.60;;;1.00;;
54923;SDS011;40825;52.270;20.984;2023-05-07T12:09:46;2.80;;;0.90;;
54923;SDS011;40825;52.270;20.984;2023-05-07T12:12:12;2.00;;;1.00;;
54923;SDS011;40825;52.270;20.984;2023-05-07T12:14:43;2.50;;;0.90;;
54923;SDS011;40825;52.270;20.984;2023-05-07T12:17:09;2.00;;;0.90;;
54923;SDS011;40825;52.270;20.984;2023-05-07T12:19:37;2.60;;;0.80;;
54923;SDS011;40825;52.270;20.984;2023-05-07T12:22:04;2.60;;;0.80;;
54923;SDS011;40825;52.270;20.984;2023-05-07T12:24:46;2.40;;;0.80;;
54923;SDS011;40825;52.270;20.984;2023-05-07T12:27:13;4.30;;;0.70;;
54923;SDS011;40825;52.270;20.984;2023-05-07T12:29:39;2.50;;;1.20;;
54923;SDS011;40825;52.270;20.984;2023-05-07T12:32:12;2.90;;;0.80;;
54923;SDS011;40825;52.270;20.984;2023-05-07T12:34:39;2.10;;;0.80;;
54923;SDS011;40825;52.270;20.984;2023-05-07T12:37:05;1.10;;;0.70;;
54923;SDS011;40825;52.270;20.984;2023-05-07T12:39:30;2.40;;;0.80;;
54923;SDS011;40825;52.270;20.984;2023-05-07T12:42:00;2.20;;;1.00;;
54923;SDS011;40825;52.270;20.984;2023-05-07T12:44:30;2.50;;;0.80;;
54923;SDS011;40825;52.270;20.984;2023-05-07T12:47:02;2.90;;;1.20;;
54923;SDS011;40825;52.270;20.984;2023-05-07T12:49:28;2.00;;;0.80;;
54923;SDS011;40825;52.270;20.984;2023-05-07T12:51:53;2.60;;;0.90;;
54923;SDS011;40825;52.270;20.984;2023-05-07T12:57:02;3.60;;;0.80;;
54923;SDS011;40825;52.270;20.984;2023-05-07T12:59:33;2.10;;;0.70;;
54923;SDS011;40825;52.270;20.984;2023-05-07T13:02:02;2.60;;;0.70;;
54923;SDS011;40825;52.270;20.984;2023-05-07T13:04:28;3.20;;;0.80;;
54923;SDS011;40825;52.270;20.984;2023-05-07T13:06:53;2.20;;;0.70;;
54923;SDS011;40825;52.270;20.984;2023-05-07T13:09:19;3.40;;;1.00;;
54923;SDS011;40825;52.270;20.984;2023-05-07T13:11:45;2.70;;;0.90;;
54923;SDS011;40825;52.270;20.984;2023-05-07T13:14:10;1.90;;;0.60;;
54923;SDS011;40825;52.270;20.984;2023-05-07T13:16:36;3.00;;;0.90;;
54923;SDS011;40825;52.270;20.984;2023-05-07T13:19:01;3.20;;;1.00;;
54923;SDS011;40825;52.270;20.984;2023-05-07T13:21:27;2.70;;;0.90;;
54923;SDS011;40825;52.270;20.984;2023-05-07T13:23:52;3.20;;;0.70;;
54923;SDS011;40825;52.270;20.984;2023-05-07T13:26:17;3.50;;;1.30;;
54923;SDS011;40825;52.270;20.984;2023-05-07T13:28:43;2.30;;;0.80;;
54923;SDS011;40825;52.270;20.984;2023-05-07T13:31:09;4.20;;;0.70;;
54923;SDS011;40825;52.270;20.984;2023-05-07T13:33:34;1.00;;;0.50;;
54923;SDS011;40825;52.270;20.984;2023-05-07T13:36:01;3.30;;;0.70;;
54923;SDS011;40825;52.270;20.984;2023-05-07T13:38:29;3.40;;;0.70;;
54923;SDS011;40825;52.270;20.984;2023-05-07T13:40:58;1.90;;;0.60;;
54923;SDS011;40825;52.270;20.984;2023-05-07T13:43:24;2.50;;;0.80;;
54923;SDS011;40825;52.270;20.984;2023-05-07T13:45:50;3.30;;;0.70;;
54923;SDS011;40825;52.270;20.984;2023-05-07T13:48:15;4.00;;;1.00;;
54923;SDS011;40825;52.270;20.984;2023-05-07T13:50:40;2.70;;;0.80;;
54923;SDS011;40825;52.270;20.984;2023-05-07T13:53:07;2.60;;;0.70;;
54923;SDS011;40825;52.270;20.984;2023-05-07T13:55:32;2.90;;;0.50;;
54923;SDS011;40825;52.270;20.984;2023-05-07T13:57:59;1.00;;;0.50;;
54923;SDS011;40825;52.270;20.984;2023-05-07T14:00:26;2.70;;;0.60;;
54923;SDS011;40825;52.270;20.984;2023-05-07T14:02:53;4.40;;;0.80;;
54923;SDS011;40825;52.270;20.984;2023-05-07T14:05:20;2.40;;;0.80;;
54923;SDS011;40825;52.270;20.984;2023-05-07T14:07:48;2.80;;;0.70;;
54923;SDS011;40825;52.270;20.984;2023-05-07T14:10:17;1.90;;;0.60;;
54923;SDS011;40825;52.270;20.984;2023-05-07T14:12:44;1.70;;;0.50;;
54923;SDS011;40825;52.270;20.984;2023-05-07T14:15:10;2.90;;;0.80;;
54923;SDS011;40825;52.270;20.984;2023-05-07T14:17:35;2.30;;;0.80;;
54923;SDS011;40825;52.270;20.984;2023-05-07T14:20:01;2.60;;;0.90;;
54923;SDS011;40825;52.270;20.984;2023-05-07T14:22:26;3.20;;;0.80;;
54923;SDS011;40825;52.270;20.984;2023-05-07T14:24:52;3.10;;;0.70;;
54923;SDS011;40825;52.270;20.984;2023-05-07T14:27:17;2.10;;;0.60;;
54923;SDS011;40825;52.270;20.984;2023-05-07T14:29:43;3.20;;;0.90;;
54923;SDS011;40825;52.270;20.984;2023-05-07T14:32:10;2.30;;;0.50;;
54923;SDS011;40825;52.270;20.984;2023-05-07T14:34:36;2.00;;;0.80;;
54923;SDS011;40825;52.270;20.984;2023-05-07T14:37:01;3.80;;;1.20;;
54923;SDS011;40825;52.270;20.984;2023-05-07T14:39:28;2.40;;;0.90;;
54923;SDS011;40825;52.270;20.984;2023-05-07T14:41:54;2.90;;;0.70;;
54923;SDS011;40825;52.270;20.984;2023-05-07T14:44:21;2.50;;;0.90;;
54923;SDS011;40825;52.270;20.984;2023-05-07T14:46:46;3.30;;;0.50;;
54923;SDS011;40825;52.270;20.984;2023-05-07T14:49:13;3.40;;;0.90;;
54923;SDS011;40825;52.270;20.984;2023-05-07T14:51:45;3.80;;;0.90;;
54923;SDS011;40825;52.270;20.984;2023-05-07T14:54:11;2.30;;;0.60;;
54923;SDS011;40825;52.270;20.984;2023-05-07T14:56:37;2.30;;;0.80;;
54923;SDS011;40825;52.270;20.984;2023-05-07T14:59:03;3.30;;;0.90;;
54923;SDS011;40825;52.270;20.984;2023-05-07T15:01:29;2.50;;;0.80;;